createdAt,value
2019-06-08T04:31:55.235Z,67.80
2019-06-08T04:34:23.735Z,67.50
2019-06-08T04:36:52.177Z,67.40
2019-06-08T04:39:20.618Z,67.40
2019-06-08T04:41:50.757Z,66.40
2019-06-08T04:44:19.427Z,66.40
2019-06-08T04:46:49.480Z,66.50
2019-06-08T04:49:18.108Z,65.70
2019-06-08T04:51:47.681Z,65.80
2019-06-08T04:54:16.761Z,66.60
2019-06-08T04:56:46.953Z,63.10
2019-06-08T04:59:15.342Z,63.80
2019-06-08T05:01:45.102Z,66.10
2019-06-08T05:04:13.669Z,65.50
2019-06-08T05:06:42.991Z,66.00
2019-06-08T05:09:11.500Z,66.20
2019-06-08T05:11:41.092Z,65.60
2019-06-08T05:14:09.636Z,65.70
2019-06-08T05:16:39.113Z,65.50
2019-06-08T05:19:07.779Z,65.30
2019-06-08T05:21:36.212Z,65.20
2019-06-08T05:24:04.709Z,65.70
2019-06-08T05:26:33.147Z,63.50
2019-06-08T05:29:01.573Z,64.40
2019-06-08T05:31:30.015Z,64.50
2019-06-08T05:33:58.435Z,64.20
2019-06-08T05:36:26.876Z,64.10
2019-06-08T05:38:55.293Z,63.80
2019-06-08T05:41:24.317Z,62.40
2019-06-08T05:43:52.860Z,60.50
2019-06-08T05:46:21.305Z,61.50
2019-06-08T05:48:50.301Z,58.80
2019-06-08T05:51:19.003Z,60.40
2019-06-08T05:53:47.928Z,58.70
2019-06-08T05:56:16.449Z,59.60
2019-06-08T05:58:45.978Z,57.50
2019-06-08T06:01:14.548Z,58.40
2019-06-08T06:03:44.444Z,59.70
2019-06-08T06:06:13.144Z,59.70
2019-06-08T06:08:42.475Z,59.70
2019-06-08T06:11:11.084Z,58.80
2019-06-08T06:13:40.575Z,58.40
2019-06-08T06:16:09.329Z,58.30
2019-06-08T06:18:37.823Z,58.50
2019-06-08T06:21:10.958Z,56.90
2019-06-08T06:23:36.432Z,55.50
2019-06-08T06:26:04.880Z,55.90
2019-06-08T06:28:33.390Z,56.60
2019-06-08T06:31:01.861Z,55.90
2019-06-08T06:33:30.408Z,56.40
2019-06-08T06:35:58.841Z,55.30
2019-06-08T06:38:27.273Z,53.50
2019-06-08T06:40:55.700Z,53.60
2019-06-08T06:43:24.145Z,52.10
2019-06-08T06:45:52.576Z,52.60
2019-06-08T06:48:23.396Z,52.30
2019-06-08T06:50:52.343Z,53.20
2019-06-08T06:53:21.119Z,51.30
2019-06-08T06:55:49.544Z,50.00
2019-06-08T06:58:18.009Z,51.30
2019-06-08T07:00:47.482Z,50.50
2019-06-08T07:03:16.160Z,50.20
2019-06-08T07:05:45.710Z,47.40
2019-06-08T07:08:14.300Z,49.60
2019-06-08T07:10:42.736Z,49.60
2019-06-08T07:13:11.185Z,50.60
2019-06-08T07:15:41.815Z,48.60
2019-06-08T07:18:09.796Z,49.50
2019-06-08T07:20:38.223Z,47.90
2019-06-08T07:23:06.677Z,47.00
2019-06-08T07:25:35.167Z,46.30
2019-06-08T07:28:03.613Z,45.70
2019-06-08T07:30:32.044Z,45.50
2019-06-08T07:33:00.473Z,45.80
2019-06-08T07:35:28.976Z,46.80
2019-06-08T07:37:57.408Z,47.40
2019-06-08T07:40:29.568Z,47.60
2019-06-08T07:42:58.043Z,45.50
2019-06-08T07:45:26.473Z,44.60
2019-06-08T07:47:56.024Z,45.20
2019-06-08T07:50:24.693Z,46.10
2019-06-08T07:52:54.537Z,45.30
2019-06-08T07:55:23.144Z,45.20
2019-06-08T07:57:52.239Z,45.70
2019-06-08T08:00:20.972Z,45.40
2019-06-08T08:02:50.171Z,45.20
2019-06-08T08:05:18.727Z,45.00
2019-06-08T08:07:48.296Z,45.90
2019-06-08T08:10:17.458Z,44.20
2019-06-08T08:12:46.024Z,45.10
2019-06-08T08:15:15.089Z,45.30
2019-06-08T08:17:43.511Z,44.10
2019-06-08T08:20:12.888Z,44.10
2019-06-08T08:22:41.312Z,44.20
2019-06-08T08:25:10.702Z,45.00
2019-06-08T08:27:39.147Z,44.60
2019-06-08T08:30:09.296Z,43.60
2019-06-08T08:32:38.130Z,44.50
2019-06-08T08:35:08.773Z,43.70
2019-06-08T08:37:38.029Z,43.00
2019-06-08T08:40:08.062Z,42.10
2019-06-08T08:42:38.641Z,42.00
2019-06-08T08:45:08.762Z,41.10
2019-06-08T08:47:38.731Z,41.30
2019-06-08T08:50:08.728Z,41.10
2019-06-08T08:52:40.496Z,41.60
2019-06-08T08:55:08.355Z,41.60
2019-06-08T08:57:38.553Z,41.20
2019-06-08T09:00:08.666Z,39.90
2019-06-08T09:02:37.513Z,39.40
2019-06-08T09:05:08.663Z,39.30
2019-06-08T09:07:38.572Z,39.50
2019-06-08T09:10:10.112Z,40.40
2019-06-08T09:12:37.906Z,40.60
2019-06-08T09:15:08.582Z,39.60
2019-06-08T09:17:38.811Z,38.60
2019-06-08T09:20:08.877Z,39.00
2019-06-08T09:22:52.542Z,39.80
2019-06-08T09:25:09.187Z,39.30
2019-06-08T09:27:38.280Z,40.10
2019-06-08T09:30:08.321Z,39.40
2019-06-08T09:32:38.245Z,39.70
2019-06-08T09:35:09.425Z,39.30
2019-06-08T09:37:39.583Z,37.90
2019-06-08T09:40:10.675Z,36.90
2019-06-08T09:42:40.819Z,36.90
2019-06-08T09:45:09.973Z,37.30
2019-06-08T09:47:38.468Z,37.20
2019-06-08T09:50:09.319Z,36.90
2019-06-08T09:52:41.035Z,36.40
2019-06-08T09:55:09.815Z,36.40
2019-06-08T09:57:38.551Z,37.60
2019-06-08T10:00:18.079Z,36.30
2019-06-08T10:02:39.493Z,36.00
2019-06-08T10:05:08.160Z,35.80
2019-06-08T10:07:38.837Z,36.80
2019-06-08T10:10:09.830Z,36.50
2019-06-08T10:12:37.799Z,36.20
2019-06-08T10:15:09.668Z,36.20
2019-06-08T10:17:38.286Z,34.00
2019-06-08T10:20:09.841Z,33.40
2019-06-08T10:22:37.305Z,33.80
2019-06-08T10:25:10.849Z,34.10
2019-06-08T10:27:38.614Z,34.80
2019-06-08T10:30:10.637Z,34.90
2019-06-08T10:32:39.315Z,34.20
2019-06-08T10:35:10.503Z,34.30
2019-06-08T10:37:39.515Z,35.30
2019-06-08T10:40:09.469Z,35.90
2019-06-08T10:42:40.130Z,32.60
2019-06-08T10:45:14.274Z,33.70
2019-06-08T10:47:39.763Z,33.40
2019-06-08T10:50:14.713Z,34.70
2019-06-08T10:52:40.249Z,33.80
2019-06-08T10:55:10.387Z,33.20
2019-06-08T10:57:39.582Z,32.50
2019-06-08T11:00:19.896Z,30.40
2019-06-08T11:02:41.104Z,31.60
2019-06-08T11:05:13.610Z,30.80
2019-06-08T11:07:40.005Z,31.20
2019-06-08T11:10:11.843Z,31.30
2019-06-08T11:12:38.832Z,30.80
2019-06-08T11:15:09.679Z,30.20
2019-06-08T11:17:37.915Z,27.60
2019-06-08T11:20:11.830Z,27.90
2019-06-08T11:22:38.325Z,28.20
2019-06-08T11:25:15.149Z,28.30
2019-06-08T11:27:38.769Z,28.40
2019-06-08T11:30:17.966Z,28.50
2019-06-08T11:32:38.891Z,29.10
2019-06-08T11:35:10.706Z,28.60
2019-06-08T11:37:38.724Z,27.40
2019-06-08T11:40:12.248Z,25.80
2019-06-08T11:42:39.410Z,26.80
2019-06-08T11:45:12.696Z,26.90
2019-06-08T11:47:40.359Z,28.30
2019-06-08T11:50:13.075Z,27.60
2019-06-08T11:52:40.762Z,26.90
2019-06-08T11:55:12.738Z,26.30
2019-06-08T11:57:42.344Z,26.50
2019-06-08T12:00:24.174Z,27.70
2019-06-08T12:02:42.537Z,25.70
2019-06-08T12:05:12.923Z,25.30
2019-06-08T12:07:41.326Z,26.00
2019-06-08T12:10:12.497Z,26.10
2019-06-08T12:12:40.005Z,25.10
2019-06-08T12:15:11.574Z,25.60
2019-06-08T12:17:38.876Z,25.50
2019-06-08T12:20:08.536Z,24.90
2019-06-08T12:22:37.767Z,26.20
2019-06-08T12:25:08.186Z,24.50
2019-06-08T12:27:40.180Z,25.20
2019-06-08T12:30:15.936Z,25.10
2019-06-08T12:32:37.341Z,26.30
2019-06-08T12:35:08.180Z,26.70
2019-06-08T12:37:38.566Z,26.20
2019-06-08T12:40:09.806Z,25.50
2019-06-08T12:42:38.217Z,26.80
2019-06-08T12:45:07.349Z,26.20
2019-06-08T12:47:37.917Z,25.20
2019-06-08T12:50:09.045Z,24.80
2019-06-08T12:52:39.105Z,23.60
2019-06-08T12:55:12.692Z,23.90
2019-06-08T12:57:37.793Z,24.60
2019-06-08T13:00:09.857Z,25.30
2019-06-08T13:02:38.590Z,23.80
2019-06-08T13:05:10.649Z,24.80
2019-06-08T13:07:38.596Z,25.10
2019-06-08T13:10:10.939Z,25.20
2019-06-08T13:12:40.971Z,24.40
2019-06-08T13:15:10.142Z,25.10
2019-06-08T13:17:39.773Z,24.90
2019-06-08T13:20:11.271Z,25.30
2019-06-08T13:22:39.697Z,25.20
2019-06-08T13:25:23.710Z,25.90
2019-06-08T13:27:42.911Z,25.60
2019-06-08T13:30:15.428Z,25.70
2019-06-08T13:32:41.932Z,26.40
2019-06-08T13:35:12.207Z,25.80
2019-06-08T13:37:40.723Z,25.30
2019-06-08T13:40:11.365Z,25.70
2019-06-08T13:42:41.348Z,25.90
2019-06-08T13:45:11.442Z,25.70
2019-06-08T13:47:41.379Z,23.30
2019-06-08T13:50:13.048Z,24.10
2019-06-08T13:52:41.803Z,24.30
2019-06-08T13:55:12.844Z,24.60
2019-06-08T13:57:41.356Z,25.30
2019-06-08T14:00:11.499Z,24.90
2019-06-08T14:02:39.977Z,25.20
2019-06-08T14:05:09.076Z,25.50
2019-06-08T14:07:38.107Z,24.90
2019-06-08T14:10:08.327Z,24.80
2019-06-08T14:12:38.446Z,24.70
2019-06-08T14:15:08.652Z,24.30
2019-06-08T14:17:37.832Z,24.60
2019-06-08T14:20:08.037Z,24.40
2019-06-08T14:22:38.858Z,24.40
2019-06-08T14:25:10.567Z,23.20
2019-06-08T14:27:37.513Z,23.60
2019-06-08T14:30:08.399Z,23.80
2019-06-08T14:32:38.119Z,23.00
2019-06-08T14:35:08.753Z,24.00
2019-06-08T14:37:38.074Z,24.30
2019-06-08T14:40:08.264Z,24.10
2019-06-08T14:42:38.358Z,24.00
2019-06-08T14:45:10.641Z,23.50
2019-06-08T14:47:37.860Z,23.90
2019-06-08T14:50:08.053Z,23.60
2019-06-08T14:52:38.096Z,22.00
2019-06-08T14:55:07.969Z,22.40
2019-06-08T14:57:37.452Z,23.20
2019-06-08T15:00:11.933Z,23.70
2019-06-08T15:02:38.847Z,23.90
2019-06-08T15:05:07.904Z,24.20
2019-06-08T15:07:38.811Z,24.90
2019-06-08T15:10:09.983Z,25.60
2019-06-08T15:12:38.446Z,25.60
2019-06-08T15:15:10.739Z,25.30
2019-06-08T15:17:37.982Z,23.90
2019-06-08T15:20:08.814Z,24.80
2019-06-08T15:22:38.950Z,23.70
2019-06-08T15:25:11.063Z,23.00
2019-06-08T15:27:39.046Z,24.00
2019-06-08T15:30:07.762Z,23.10
2019-06-08T15:32:38.548Z,24.20
2019-06-08T15:35:08.107Z,23.60
2019-06-08T15:37:38.095Z,23.20
2019-06-08T15:40:07.811Z,22.10
2019-06-08T15:42:36.354Z,22.70
2019-06-08T15:45:08.600Z,22.50
2019-06-08T15:47:40.475Z,22.20
2019-06-08T15:50:08.870Z,22.70
2019-06-08T15:52:37.822Z,23.10
2019-06-08T15:55:08.469Z,22.70
2019-06-08T15:57:40.876Z,23.70
2019-06-08T16:00:10.159Z,23.30
2019-06-08T16:02:39.226Z,23.70
2019-06-08T16:05:08.747Z,22.70
2019-06-08T16:07:37.173Z,22.90
2019-06-08T16:10:07.588Z,23.70
2019-06-08T16:12:36.034Z,24.30
2019-06-08T16:15:07.930Z,24.30
2019-06-08T16:17:36.361Z,23.30
2019-06-08T16:20:06.384Z,24.00
2019-06-08T16:22:35.973Z,23.60
2019-06-08T16:25:05.922Z,24.50
2019-06-08T16:27:34.373Z,23.80
2019-06-08T16:30:09.343Z,23.90
2019-06-08T16:32:33.537Z,25.00
2019-06-08T16:35:02.179Z,24.50
2019-06-08T16:37:31.644Z,24.00
2019-06-08T16:40:00.492Z,24.20
2019-06-08T16:42:30.135Z,23.90
2019-06-08T16:44:58.690Z,23.80
2019-06-08T16:47:27.169Z,24.00
2019-06-08T16:49:55.598Z,24.50
2019-06-08T16:52:24.016Z,24.20
2019-06-08T16:54:52.444Z,22.80
2019-06-08T16:57:20.894Z,22.50
2019-06-08T16:59:49.375Z,22.30
2019-06-08T17:02:17.799Z,23.60
2019-06-08T17:04:46.227Z,24.40
2019-06-08T17:07:14.663Z,23.50
2019-06-08T17:09:43.266Z,23.80
2019-06-08T17:12:11.796Z,23.60
2019-06-08T17:14:40.692Z,23.70
2019-06-08T17:17:09.367Z,23.90
2019-06-08T17:19:38.455Z,24.30
2019-06-08T17:22:07.094Z,24.50
2019-06-08T17:24:36.738Z,25.30
2019-06-08T17:27:05.344Z,24.40
2019-06-08T17:29:34.901Z,24.60
2019-06-08T17:32:04.298Z,24.50
2019-06-08T17:34:34.573Z,23.90
2019-06-08T17:37:03.047Z,24.30
2019-06-08T17:39:33.838Z,24.40
2019-06-08T17:42:02.373Z,24.20
2019-06-08T17:44:32.005Z,24.70
2019-06-08T17:47:00.987Z,25.00
2019-06-08T17:49:29.580Z,25.30
2019-06-08T17:51:58.016Z,24.80
2019-06-08T17:54:26.474Z,24.00
2019-06-08T17:56:54.909Z,23.90
2019-06-08T17:59:23.336Z,24.90
2019-06-08T18:01:51.789Z,26.10
2019-06-08T18:04:20.243Z,26.30
2019-06-08T18:06:48.875Z,27.30
2019-06-08T18:09:17.895Z,27.70
2019-06-08T18:11:47.965Z,28.10
2019-06-08T18:14:18.117Z,27.50
2019-06-08T18:16:47.963Z,28.20
2019-06-08T18:19:25.260Z,29.40
2019-06-08T18:21:53.864Z,29.90
2019-06-08T18:24:22.412Z,30.00
2019-06-08T18:26:51.721Z,31.70
2019-06-08T18:29:20.312Z,31.50
2019-06-08T18:31:51.388Z,33.00
2019-06-08T18:34:19.954Z,31.70
2019-06-08T18:36:48.555Z,30.50
2019-06-08T18:39:18.346Z,31.70
2019-06-08T18:41:48.379Z,31.50
2019-06-08T18:44:17.588Z,31.60
2019-06-08T18:46:48.223Z,31.90
2019-06-08T18:49:17.887Z,32.80
2019-06-08T18:51:49.227Z,32.60
2019-06-08T18:54:19.225Z,31.10
2019-06-08T18:56:48.814Z,31.20
2019-06-08T18:59:18.973Z,31.30
2019-06-08T19:01:49.854Z,31.30
2019-06-08T19:04:19.069Z,31.70
2019-06-08T19:06:49.952Z,31.80
2019-06-08T19:09:19.463Z,32.50
2019-06-08T19:11:50.200Z,34.20
2019-06-08T19:14:20.828Z,35.10
2019-06-08T19:16:54.422Z,34.70
2019-06-08T19:19:20.396Z,34.80
2019-06-08T19:21:50.429Z,35.20
2019-06-08T19:24:19.690Z,36.00
2019-06-08T19:26:49.038Z,36.50
2019-06-08T19:29:19.408Z,37.70
2019-06-08T19:31:51.204Z,38.00
2019-06-08T19:34:18.642Z,37.80
2019-06-08T19:36:52.169Z,37.30
2019-06-08T19:39:17.978Z,37.80
2019-06-08T19:41:49.183Z,39.00
2019-06-08T19:44:18.335Z,39.60
2019-06-08T19:46:52.015Z,39.60
2019-06-08T19:49:17.682Z,39.60
2019-06-08T19:51:52.454Z,40.20
2019-06-08T19:54:18.608Z,40.70
2019-06-08T19:56:49.849Z,42.20
2019-06-08T19:59:18.351Z,42.90
2019-06-08T20:01:51.373Z,43.00
2019-06-08T20:04:18.279Z,43.30
2019-06-08T20:06:48.000Z,43.70
2019-06-08T20:09:17.562Z,43.90
2019-06-08T20:11:49.463Z,43.90
2019-06-08T20:14:16.345Z,43.20
2019-06-08T20:16:44.984Z,42.90
2019-06-08T20:19:13.542Z,42.70
2019-06-08T20:21:42.899Z,42.50
2019-06-08T20:24:11.831Z,42.70
2019-06-08T20:26:40.349Z,42.30
2019-06-08T20:29:15.531Z,41.60
2019-06-08T20:31:39.115Z,41.80
2019-06-08T20:34:07.792Z,42.50
2019-06-08T20:36:37.592Z,41.10
2019-06-08T20:39:08.202Z,41.50
2019-06-08T20:41:37.681Z,40.90
2019-06-08T20:44:08.478Z,40.30
2019-06-08T20:46:37.777Z,39.50
2019-06-08T20:49:08.332Z,40.00
2019-06-08T20:51:37.450Z,39.50
2019-06-08T20:54:07.933Z,39.00
2019-06-08T20:56:37.229Z,38.70
2019-06-08T20:59:08.032Z,39.00
2019-06-08T21:01:35.960Z,38.60
2019-06-08T21:04:04.487Z,38.40
2019-06-08T21:06:32.976Z,38.40
2019-06-08T21:09:01.420Z,38.20
2019-06-08T21:11:29.845Z,37.80
2019-06-08T21:13:58.308Z,37.60
2019-06-08T21:16:27.670Z,38.50
2019-06-08T21:18:57.919Z,37.90
2019-06-08T21:21:28.387Z,38.90
2019-06-08T21:24:01.159Z,38.20
2019-06-08T21:26:27.128Z,38.10
2019-06-08T21:28:56.681Z,38.50
2019-06-08T21:31:25.793Z,37.80
2019-06-08T21:33:55.713Z,37.10
2019-06-08T21:36:24.368Z,37.40
2019-06-08T21:38:55.313Z,37.30
2019-06-08T21:41:22.964Z,37.20
2019-06-08T21:43:54.235Z,37.50
2019-06-08T21:46:21.583Z,37.00
2019-06-08T21:48:51.602Z,37.00
2019-06-08T21:51:20.159Z,36.90
2019-06-08T21:53:50.007Z,37.10
2019-06-08T21:56:18.756Z,36.50
2019-06-08T21:58:48.674Z,37.10
2019-06-08T22:01:18.572Z,36.40
2019-06-08T22:03:47.202Z,37.00
2019-06-08T22:06:17.566Z,36.70
2019-06-08T22:08:47.985Z,36.60
2019-06-08T22:11:17.722Z,37.00
2019-06-08T22:13:47.682Z,37.10
2019-06-08T22:16:16.345Z,37.10
2019-06-08T22:18:47.326Z,37.50
2019-06-08T22:21:17.889Z,37.30
2019-06-08T22:23:47.458Z,37.00
2019-06-08T22:26:17.607Z,37.30
2019-06-08T22:28:45.520Z,36.40
2019-06-08T22:31:13.988Z,36.50
2019-06-08T22:33:42.458Z,36.70
2019-06-08T22:36:10.899Z,36.60
2019-06-08T22:38:39.325Z,36.90
2019-06-08T22:41:08.212Z,37.30
2019-06-08T22:43:37.446Z,36.90
2019-06-08T22:46:08.242Z,36.90
2019-06-08T22:48:38.355Z,36.80
2019-06-08T22:51:08.064Z,36.50
2019-06-08T22:53:38.401Z,36.90
2019-06-08T22:56:07.917Z,36.10
2019-06-08T22:58:37.300Z,36.10
2019-06-08T23:01:08.700Z,36.30
2019-06-08T23:03:36.169Z,36.20
2019-06-08T23:06:08.188Z,36.30
2019-06-08T23:08:37.321Z,36.10
2019-06-08T23:11:05.716Z,36.30
2019-06-08T23:13:37.534Z,36.40
2019-06-08T23:16:06.255Z,36.00
2019-06-08T23:18:37.311Z,36.30
2019-06-08T23:21:06.523Z,36.30
2019-06-08T23:23:38.019Z,36.60
2019-06-08T23:26:10.242Z,36.50
2019-06-08T23:28:37.695Z,36.70
